createdAt,value
2022-12-12T00:01:56.531Z,94743.63
2022-12-12T00:04:25.061Z,94713.53
2022-12-12T00:06:53.402Z,94760.63
2022-12-12T00:09:23.226Z,94792.16
2022-12-12T00:11:51.955Z,94794.22
2022-12-12T00:14:20.331Z,94763.84
2022-12-12T00:16:48.719Z,94786.13
2022-12-12T00:19:17.045Z,94791.56
2022-12-12T00:21:45.759Z,94774.19
2022-12-12T00:24:14.121Z,94711.50
2022-12-12T00:26:44.130Z,94767.53
2022-12-12T00:29:12.727Z,94792.97
2022-12-12T00:31:41.903Z,94795.41
2022-12-12T00:34:10.275Z,94803.09
2022-12-12T00:36:38.797Z,94774.97
2022-12-12T00:39:07.940Z,94803.31
2022-12-12T00:41:38.189Z,94766.50
2022-12-12T00:44:08.775Z,94779.44
2022-12-12T00:46:37.384Z,94809.16
2022-12-12T00:49:05.839Z,94808.56
2022-12-12T00:51:34.317Z,94814.00
2022-12-12T00:54:02.714Z,94803.91
2022-12-12T00:56:32.260Z,94775.19
2022-12-12T00:59:00.734Z,94741.63
2022-12-12T01:01:37.842Z,94807.13
2022-12-12T01:04:06.626Z,94784.50
2022-12-12T01:06:35.259Z,94821.28
2022-12-12T01:09:04.119Z,94824.13
2022-12-12T01:11:32.774Z,94819.25
2022-12-12T01:14:01.984Z,94805.28
2022-12-12T01:16:31.034Z,94811.53
2022-12-12T01:19:01.398Z,94773.13
2022-12-12T01:21:29.798Z,94817.00
2022-12-12T01:23:58.121Z,94692.09
2022-12-12T01:26:26.897Z,94744.84
2022-12-12T01:28:55.362Z,94823.25
2022-12-12T01:31:24.221Z,94836.41
2022-12-12T01:33:53.350Z,94827.75
2022-12-12T01:36:25.306Z,94775.16
2022-12-12T01:38:57.189Z,94842.91
2022-12-12T01:41:26.379Z,94792.94
2022-12-12T01:43:54.785Z,94809.53
2022-12-12T01:46:34.975Z,94851.00
2022-12-12T01:49:10.984Z,94853.25
2022-12-12T01:51:42.689Z,94849.16
2022-12-12T01:54:15.918Z,94720.22
2022-12-12T01:56:46.505Z,94818.22
2022-12-12T01:59:19.277Z,94793.75
2022-12-12T02:01:47.952Z,94848.16
2022-12-12T02:04:17.978Z,94836.22
2022-12-12T02:06:48.877Z,94842.72
2022-12-12T02:09:18.880Z,94816.00
2022-12-12T02:11:49.704Z,94847.97
2022-12-12T02:14:22.574Z,94845.94
2022-12-12T02:17:35.394Z,94841.88
2022-12-12T02:20:35.461Z,94842.31
2022-12-12T02:23:37.889Z,94842.72
2022-12-12T02:26:45.691Z,94842.50
2022-12-12T02:30:01.099Z,94844.34
2022-12-12T02:32:40.424Z,94831.38
2022-12-12T02:35:18.448Z,94852.03
2022-12-12T02:37:55.474Z,94806.31
2022-12-12T02:40:29.736Z,94850.00
2022-12-12T02:43:04.972Z,94683.00
2022-12-12T02:45:38.688Z,94839.50
2022-12-12T02:48:16.305Z,94813.81
2022-12-12T02:50:46.721Z,94854.88
2022-12-12T02:53:19.397Z,94847.56
2022-12-12T02:55:48.150Z,94800.66
2022-12-12T02:58:17.098Z,94856.25
2022-12-12T03:00:57.252Z,94858.91
2022-12-12T03:04:01.249Z,94838.63
2022-12-12T03:07:04.966Z,94812.69
2022-12-12T03:09:45.658Z,94810.25
2022-12-12T03:12:20.784Z,94836.53
2022-12-12T03:14:56.709Z,94846.69
2022-12-12T03:17:32.808Z,94859.81
2022-12-12T03:20:13.105Z,94856.41
2022-12-12T03:22:47.606Z,94826.25
2022-12-12T03:25:21.118Z,94845.88
2022-12-12T03:27:54.983Z,94844.66
2022-12-12T03:30:23.890Z,94845.59
2022-12-12T03:33:01.620Z,94815.78
2022-12-12T03:35:37.646Z,94862.75
2022-12-12T03:38:10.813Z,94824.44
2022-12-12T03:40:43.329Z,94859.94
2022-12-12T03:43:15.753Z,94856.28
2022-12-12T03:45:53.094Z,94807.63
2022-12-12T03:48:29.600Z,94859.84
2022-12-12T03:51:03.824Z,94808.59
2022-12-12T03:53:37.577Z,94849.72
2022-12-12T03:56:09.625Z,94845.91
2022-12-12T03:58:43.900Z,94783.16
2022-12-12T04:01:14.777Z,94859.66
2022-12-12T04:03:49.799Z,94851.81
2022-12-12T04:06:29.562Z,94853.03
2022-12-12T04:09:18.045Z,94848.19
2022-12-12T04:12:16.135Z,94846.78
2022-12-12T04:15:05.308Z,94847.78
2022-12-12T04:17:41.496Z,94840.66
2022-12-12T04:20:40.717Z,94862.06
2022-12-12T04:23:21.273Z,94857.22
2022-12-12T04:26:19.624Z,94856.00
2022-12-12T04:28:56.220Z,94861.84
2022-12-12T04:31:28.347Z,94866.69
2022-12-12T04:34:02.799Z,94848.66
2022-12-12T04:36:33.410Z,94834.63
2022-12-12T04:39:06.123Z,94849.75
2022-12-12T04:41:36.098Z,94875.75
2022-12-12T04:44:08.751Z,94866.03
2022-12-12T04:46:39.459Z,94813.16
2022-12-12T04:49:13.650Z,94845.00
2022-12-12T04:51:46.561Z,94881.47
2022-12-12T04:54:23.727Z,94883.09
2022-12-12T04:56:55.937Z,94869.50
2022-12-12T04:59:25.041Z,94881.81
2022-12-12T05:01:59.504Z,94877.75
2022-12-12T05:04:33.623Z,94885.22
2022-12-12T05:07:09.016Z,94885.38
2022-12-12T05:09:39.585Z,94859.09
2022-12-12T05:12:08.252Z,94839.97
2022-12-12T05:14:36.616Z,94803.50
2022-12-12T05:17:09.490Z,94878.06
2022-12-12T05:19:38.578Z,94860.31
2022-12-12T05:22:07.184Z,94893.97
2022-12-12T05:24:35.643Z,94892.63
2022-12-12T05:27:06.152Z,94887.75
2022-12-12T05:29:34.688Z,94903.78
2022-12-12T05:32:03.081Z,94905.19
2022-12-12T05:34:31.473Z,94886.34
2022-12-12T05:37:00.914Z,94841.94
2022-12-12T05:39:29.308Z,94907.03
2022-12-12T05:41:57.989Z,94911.03
2022-12-12T05:44:27.907Z,94921.53
2022-12-12T05:46:56.924Z,94912.66
2022-12-12T05:49:25.388Z,94909.16
2022-12-12T05:51:53.670Z,94918.28
2022-12-12T05:54:22.741Z,94924.75
2022-12-12T05:56:51.408Z,94926.38
2022-12-12T05:59:19.894Z,94915.09
2022-12-12T06:01:49.728Z,94926.88
2022-12-12T06:04:18.085Z,94900.00
2022-12-12T06:06:47.045Z,94922.72
2022-12-12T06:09:15.913Z,94873.59
2022-12-12T06:11:44.284Z,94947.13
2022-12-12T06:14:12.782Z,94926.97
2022-12-12T06:16:41.204Z,94919.72
2022-12-12T06:19:10.980Z,94918.88
2022-12-12T06:21:40.144Z,94917.78
2022-12-12T06:24:09.210Z,94910.97
2022-12-12T06:26:37.552Z,94915.84
2022-12-12T06:29:06.143Z,94889.59
2022-12-12T06:31:34.581Z,94912.06
2022-12-12T06:34:03.010Z,94916.50
2022-12-12T06:36:32.815Z,94915.50
2022-12-12T06:39:02.190Z,94896.31
2022-12-12T06:41:32.402Z,94912.31
2022-12-12T06:44:01.080Z,94916.97
2022-12-12T06:46:31.715Z,94915.59
2022-12-12T06:49:00.893Z,94922.50
2022-12-12T06:51:32.119Z,94925.38
2022-12-12T06:54:02.261Z,94928.41
2022-12-12T06:56:30.642Z,94943.06
2022-12-12T06:59:00.035Z,94942.63
2022-12-12T07:01:28.474Z,94946.22
2022-12-12T07:03:57.049Z,94944.00
2022-12-12T07:06:26.273Z,94948.47
2022-12-12T07:08:54.628Z,94951.53
2022-12-12T07:11:26.058Z,94900.09
2022-12-12T07:13:55.616Z,94949.50
2022-12-12T07:16:24.404Z,94923.31
2022-12-12T07:18:52.862Z,94960.41
2022-12-12T07:21:22.270Z,94956.78
2022-12-12T07:23:50.688Z,94957.59
2022-12-12T07:26:22.951Z,94920.91
2022-12-12T07:28:54.057Z,94878.13
2022-12-12T07:31:25.674Z,94954.09
2022-12-12T07:33:54.774Z,94934.09
2022-12-12T07:36:23.199Z,94959.63
2022-12-12T07:38:52.234Z,94960.88
2022-12-12T07:41:21.779Z,94958.03
2022-12-12T07:43:51.211Z,94968.22
2022-12-12T07:46:23.218Z,94967.00
2022-12-12T07:48:52.375Z,94967.00
2022-12-12T07:51:21.674Z,94969.84
2022-12-12T07:53:50.095Z,94967.38
2022-12-12T07:56:19.839Z,94973.47
2022-12-12T07:58:48.565Z,94967.00
2022-12-12T08:01:22.938Z,94971.88
2022-12-12T08:03:53.509Z,94966.00
2022-12-12T08:06:23.822Z,94974.34
2022-12-12T08:08:53.611Z,94974.75
2022-12-12T08:11:24.706Z,94976.97
2022-12-12T08:13:54.123Z,94945.63
2022-12-12T08:16:23.754Z,94956.97
2022-12-12T08:18:55.329Z,94984.97
2022-12-12T08:21:26.201Z,94991.00
2022-12-12T08:23:57.587Z,94996.41
2022-12-12T08:26:26.387Z,94990.94
2022-12-12T08:28:55.546Z,94996.00
2022-12-12T08:31:24.477Z,94959.50
2022-12-12T08:33:54.501Z,94973.94
2022-12-12T08:36:25.494Z,94997.91
2022-12-12T08:38:54.265Z,94991.00
2022-12-12T08:41:22.643Z,94997.09
2022-12-12T08:43:51.464Z,94981.91
2022-12-12T08:46:23.378Z,95008.47
2022-12-12T08:48:53.467Z,95006.88
2022-12-12T08:51:22.331Z,94999.25
2022-12-12T08:53:54.096Z,95007.94
2022-12-12T08:56:24.242Z,95012.41
2022-12-12T08:58:53.938Z,95017.91
2022-12-12T09:01:24.674Z,95013.47
2022-12-12T09:03:56.415Z,95011.03
2022-12-12T09:06:25.068Z,95035.88
2022-12-12T09:08:54.273Z,95019.00
2022-12-12T09:11:22.595Z,95017.78
2022-12-12T09:13:51.169Z,95018.41
2022-12-12T09:16:21.912Z,94989.03
2022-12-12T09:18:50.337Z,95021.28
2022-12-12T09:21:21.071Z,95012.78
2022-12-12T09:23:49.829Z,95030.00
2022-12-12T09:26:19.143Z,95025.72
2022-12-12T09:28:47.811Z,95019.25
2022-12-12T09:31:16.421Z,95030.22
2022-12-12T09:33:45.166Z,95027.78
2022-12-12T09:36:15.140Z,95009.56
2022-12-12T09:38:45.643Z,95013.19
2022-12-12T09:41:17.427Z,94989.28
2022-12-12T09:43:57.514Z,95018.03
2022-12-12T09:46:34.720Z,95029.78
2022-12-12T09:49:13.501Z,95031.97
2022-12-12T09:51:43.902Z,95039.47
2022-12-12T09:54:18.087Z,95046.38
2022-12-12T09:56:56.956Z,94967.38
2022-12-12T09:59:34.039Z,95044.34
2022-12-12T10:02:14.277Z,95042.09
2022-12-12T10:04:50.903Z,95047.38
2022-12-12T10:07:27.325Z,95037.34
2022-12-12T10:10:03.480Z,95038.16
2022-12-12T10:12:34.538Z,95034.03
2022-12-12T10:15:06.031Z,95034.84
2022-12-12T10:17:37.066Z,95041.09
2022-12-12T10:20:13.429Z,95031.38
2022-12-12T10:22:48.430Z,95038.44
2022-12-12T10:25:22.507Z,95032.34
2022-12-12T10:27:53.443Z,95034.75
2022-12-12T10:30:22.437Z,95004.59
2022-12-12T10:33:07.476Z,95032.31
2022-12-12T10:35:45.876Z,95033.47
2022-12-12T10:38:28.874Z,94990.56
2022-12-12T10:41:05.828Z,94988.59
2022-12-12T10:43:44.278Z,95028.19
2022-12-12T10:46:22.355Z,95017.81
2022-12-12T10:48:51.404Z,95008.91
2022-12-12T10:51:24.652Z,94940.97
2022-12-12T10:53:53.762Z,95026.78
2022-12-12T10:56:26.115Z,95026.94
2022-12-12T10:58:56.786Z,95032.22
2022-12-12T11:02:00.633Z,94996.38
2022-12-12T11:04:18.069Z,95025.44
2022-12-12T11:06:49.745Z,95023.28
2022-12-12T11:09:22.766Z,95027.50
2022-12-12T11:12:02.250Z,95030.13
2022-12-12T11:14:35.780Z,95025.25
2022-12-12T11:17:04.732Z,95022.03
2022-12-12T11:19:40.122Z,95015.53
2022-12-12T11:22:09.286Z,95027.19
2022-12-12T11:24:40.334Z,95029.03
2022-12-12T11:27:22.048Z,95019.53
2022-12-12T11:29:53.399Z,95035.72
2022-12-12T11:32:25.850Z,95029.41
2022-12-12T11:34:57.102Z,95017.09
2022-12-12T11:37:28.309Z,95028.06
2022-12-12T11:39:58.510Z,95037.19
2022-12-12T11:42:30.813Z,95030.84
2022-12-12T11:45:02.821Z,95029.28
2022-12-12T11:47:38.735Z,95032.16
2022-12-12T11:50:21.211Z,95029.25
2022-12-12T11:52:51.082Z,95032.66
2022-12-12T11:55:26.942Z,95034.19
2022-12-12T11:58:14.537Z,95021.72
2022-12-12T12:00:48.285Z,94989.28
2022-12-12T12:03:28.706Z,95028.03
2022-12-12T12:06:29.459Z,95027.75
2022-12-12T12:09:16.845Z,95026.84
2022-12-12T12:11:55.098Z,95019.50
2022-12-12T12:14:40.563Z,95013.63
2022-12-12T12:17:18.758Z,94882.66
2022-12-12T12:19:55.753Z,95014.38
2022-12-12T12:22:38.815Z,95016.84
2022-12-12T12:25:25.291Z,95015.06
2022-12-12T12:28:06.238Z,95019.25
2022-12-12T12:30:50.823Z,95015.31
2022-12-12T12:33:41.436Z,95012.13
2022-12-12T12:36:21.173Z,95012.56
2022-12-12T12:39:10.621Z,95010.06
2022-12-12T12:41:52.477Z,95007.75
2022-12-12T12:44:34.283Z,95016.56
2022-12-12T12:47:09.842Z,95015.50
2022-12-12T12:49:43.631Z,95010.06
2022-12-12T12:52:18.786Z,95008.03
2022-12-12T12:54:49.167Z,95011.25
2022-12-12T12:57:23.200Z,95007.16
2022-12-12T12:59:55.712Z,94996.72
2022-12-12T13:02:32.205Z,95000.69
2022-12-12T13:05:07.593Z,95012.59
2022-12-12T13:07:44.187Z,94973.13
2022-12-12T13:10:21.266Z,95003.56
2022-12-12T13:12:56.155Z,94992.63
2022-12-12T13:15:29.927Z,94991.31
2022-12-12T13:18:04.069Z,95009.38
2022-12-12T13:20:36.403Z,95003.38
2022-12-12T13:23:17.669Z,94994.81
2022-12-12T13:25:55.678Z,95008.28
2022-12-12T13:28:28.677Z,95007.47
2022-12-12T13:31:13.267Z,95007.47
2022-12-12T13:33:47.168Z,95007.47
2022-12-12T13:36:29.277Z,94955.34
2022-12-12T13:39:00.832Z,95004.25
2022-12-12T13:41:29.604Z,94997.31
2022-12-12T13:43:59.590Z,95002.09
2022-12-12T13:46:42.226Z,95004.19
2022-12-12T13:49:26.116Z,95011.38
2022-12-12T13:52:24.432Z,95009.28
2022-12-12T13:54:56.142Z,95016.16
2022-12-12T13:57:32.074Z,95022.59
2022-12-12T14:00:31.362Z,95013.56
2022-12-12T14:03:19.660Z,94999.72
2022-12-12T14:05:51.301Z,95024.41
2022-12-12T14:08:30.208Z,95007.44
2022-12-12T14:11:02.828Z,95030.16
2022-12-12T14:13:45.516Z,95004.34
2022-12-12T14:16:23.208Z,95019.81
2022-12-12T14:19:02.266Z,95007.34
2022-12-12T14:21:53.206Z,95037.50
2022-12-12T14:24:55.044Z,95038.53
2022-12-12T14:27:56.403Z,95041.38
2022-12-12T14:30:27.531Z,95028.22
2022-12-12T14:33:04.145Z,95032.50
2022-12-12T14:35:39.496Z,94999.94
2022-12-12T14:38:27.737Z,95026.03
2022-12-12T14:41:01.683Z,95032.56
2022-12-12T14:43:31.954Z,95044.38
2022-12-12T14:46:01.670Z,94983.63
2022-12-12T14:48:31.255Z,95043.16
2022-12-12T14:51:06.513Z,95042.75
2022-12-12T14:53:47.664Z,95025.34
2022-12-12T14:56:18.196Z,95005.28
2022-12-12T14:58:50.681Z,95015.19
2022-12-12T15:01:28.274Z,95034.66
2022-12-12T15:03:57.948Z,95026.97
2022-12-12T15:06:31.348Z,95019.06
2022-12-12T15:09:11.080Z,95037.09
2022-12-12T15:11:39.552Z,95035.66
2022-12-12T15:14:07.956Z,94958.50
2022-12-12T15:16:47.717Z,95039.13
2022-12-12T15:19:19.747Z,94992.94
2022-12-12T15:21:49.337Z,94970.44
2022-12-12T15:24:24.628Z,95026.16
2022-12-12T15:26:55.836Z,95054.91
2022-12-12T15:29:28.099Z,95052.06
2022-12-12T15:32:03.070Z,95052.06
2022-12-12T15:34:40.371Z,95052.44
2022-12-12T15:37:22.812Z,95050.22
2022-12-12T15:40:22.290Z,95054.88
2022-12-12T15:42:55.057Z,95052.66
2022-12-12T15:45:32.566Z,95052.03
2022-12-12T15:48:02.565Z,95026.03
2022-12-12T15:50:50.726Z,95051.00
2022-12-12T15:53:23.339Z,95057.25
2022-12-12T15:55:58.867Z,95049.38
2022-12-12T15:58:31.380Z,95048.38
2022-12-12T16:01:21.707Z,95042.47
2022-12-12T16:03:58.991Z,95033.75
2022-12-12T16:06:29.621Z,94983.66
2022-12-12T16:09:03.283Z,95032.06
2022-12-12T16:11:42.653Z,95047.06
2022-12-12T16:14:39.033Z,95039.72
2022-12-12T16:17:11.938Z,95040.91
2022-12-12T16:19:45.961Z,95035.56
2022-12-12T16:22:20.491Z,95054.22
2022-12-12T16:24:51.919Z,95054.44
2022-12-12T16:27:21.990Z,95061.13
2022-12-12T16:29:50.558Z,95047.56
2022-12-12T16:32:20.560Z,95059.91
2022-12-12T16:34:48.862Z,95061.56
2022-12-12T16:37:19.240Z,95058.91
2022-12-12T16:39:47.963Z,95058.66
2022-12-12T16:42:17.308Z,95058.44
2022-12-12T16:44:48.046Z,95064.69
2022-12-12T16:47:18.448Z,95040.53
2022-12-12T16:49:47.441Z,95060.66
2022-12-12T16:52:17.352Z,95059.44
2022-12-12T16:54:52.830Z,95057.84
2022-12-12T16:57:22.124Z,95069.94
2022-12-12T16:59:51.968Z,95062.03
2022-12-12T17:02:22.301Z,95074.91
2022-12-12T17:04:52.195Z,95082.94
2022-12-12T17:07:21.018Z,95046.94
2022-12-12T17:09:49.266Z,95083.13
2022-12-12T17:12:17.742Z,95069.75
2022-12-12T17:14:46.100Z,95078.72
2022-12-12T17:17:16.069Z,95082.97
2022-12-12T17:19:44.431Z,95075.06
2022-12-12T17:22:12.800Z,95085.03
2022-12-12T17:24:41.128Z,95087.44
2022-12-12T17:27:10.040Z,95086.44
2022-12-12T17:29:38.353Z,95087.25
2022-12-12T17:32:07.077Z,95087.66
2022-12-12T17:34:36.904Z,95099.53
2022-12-12T17:37:05.265Z,95102.13
2022-12-12T17:39:33.982Z,95098.88
2022-12-12T17:42:02.696Z,95106.75
2022-12-12T17:44:31.443Z,95110.59
2022-12-12T17:47:00.082Z,95082.56
2022-12-12T17:49:28.439Z,95106.53
2022-12-12T17:51:58.597Z,95105.91
2022-12-12T17:54:27.316Z,95107.91
2022-12-12T17:56:55.792Z,95079.06
2022-12-12T17:59:24.224Z,95110.97
2022-12-12T18:01:54.126Z,95101.88
2022-12-12T18:04:28.072Z,95104.13
2022-12-12T18:06:59.587Z,95110.16
2022-12-12T18:09:28.047Z,95117.81
2022-12-12T18:11:56.517Z,95113.31
2022-12-12T18:14:24.874Z,95093.19
2022-12-12T18:16:53.528Z,95117.56
2022-12-12T18:19:22.721Z,95117.56
2022-12-12T18:22:00.803Z,95103.50
2022-12-12T18:24:32.644Z,95101.06
2022-12-12T18:27:03.571Z,95117.06
2022-12-12T18:29:33.192Z,95104.75
2022-12-12T18:32:01.678Z,95116.91
2022-12-12T18:34:30.099Z,95094.19
2022-12-12T18:36:58.982Z,95105.94
2022-12-12T18:39:28.022Z,95101.06
2022-12-12T18:41:57.902Z,95087.44
2022-12-12T18:44:26.193Z,95099.44
2022-12-12T18:46:54.451Z,95098.63
2022-12-12T18:49:23.422Z,95044.38
2022-12-12T18:51:51.877Z,95078.22
2022-12-12T18:54:20.797Z,95104.03
2022-12-12T18:56:49.551Z,95096.34
2022-12-12T18:59:19.483Z,95099.75
2022-12-12T19:01:48.827Z,95105.00
2022-12-12T19:04:22.866Z,95091.50
2022-12-12T19:06:51.951Z,95096.97
2022-12-12T19:09:21.724Z,95103.34
2022-12-12T19:11:50.706Z,95100.47
2022-12-12T19:14:21.745Z,95097.59
2022-12-12T19:16:50.140Z,95109.97
2022-12-12T19:19:18.746Z,95118.22
2022-12-12T19:21:48.305Z,95076.78
2022-12-12T19:24:16.657Z,95103.22
2022-12-12T19:26:45.558Z,95095.34
2022-12-12T19:29:16.471Z,95099.59
2022-12-12T19:31:47.084Z,95063.38
2022-12-12T19:34:19.079Z,95068.31
2022-12-12T19:36:47.910Z,95036.66
2022-12-12T19:39:16.342Z,95093.56
2022-12-12T19:41:44.952Z,95095.84
2022-12-12T19:44:14.969Z,95097.84
2022-12-12T19:46:46.722Z,95092.84
2022-12-12T19:49:17.540Z,95103.66
2022-12-12T19:51:46.812Z,95103.03
2022-12-12T19:54:17.079Z,95048.38
2022-12-12T19:56:46.320Z,95115.41
2022-12-12T19:59:16.167Z,95119.69
2022-12-12T20:01:46.699Z,95148.88
2022-12-12T20:04:18.570Z,95107.91
2022-12-12T20:06:49.340Z,95111.59
2022-12-12T20:09:20.238Z,95076.41
2022-12-12T20:11:49.262Z,95101.72
2022-12-12T20:14:21.452Z,95104.22
2022-12-12T20:16:55.523Z,95032.63
2022-12-12T20:19:27.559Z,95035.78
2022-12-12T20:22:01.389Z,95089.88
2022-12-12T20:24:33.820Z,95105.66
2022-12-12T20:27:05.823Z,95105.88
2022-12-12T20:29:36.111Z,95110.75
2022-12-12T20:32:07.691Z,95100.25
2022-12-12T20:34:37.333Z,95105.13
2022-12-12T20:37:09.188Z,95103.94
2022-12-12T20:39:39.389Z,95089.72
2022-12-12T20:42:11.584Z,95103.31
2022-12-12T20:44:41.292Z,95103.41
2022-12-12T20:47:14.996Z,95102.19
2022-12-12T20:49:44.714Z,95106.59
2022-12-12T20:52:14.416Z,95107.06
2022-12-12T20:54:44.145Z,95107.88
2022-12-12T20:57:13.979Z,95108.66
2022-12-12T20:59:43.641Z,95121.41
2022-12-12T21:02:18.520Z,95122.69
2022-12-12T21:04:48.828Z,95079.88
2022-12-12T21:07:18.397Z,95133.72
2022-12-12T21:09:47.000Z,95134.97
2022-12-12T21:12:15.607Z,95129.25
2022-12-12T21:14:46.190Z,95124.38
2022-12-12T21:17:16.034Z,95062.13
2022-12-12T21:19:44.940Z,95135.59
2022-12-12T21:22:13.393Z,95134.16
2022-12-12T21:24:41.825Z,95140.22
2022-12-12T21:27:10.197Z,95132.38
2022-12-12T21:29:38.646Z,95134.81
2022-12-12T21:32:07.308Z,95140.47
2022-12-12T21:34:40.153Z,95127.22
2022-12-12T21:37:09.188Z,95113.06
2022-12-12T21:39:37.601Z,95130.38
2022-12-12T21:42:06.313Z,95121.25
2022-12-12T21:44:35.716Z,95114.38
2022-12-12T21:47:04.185Z,95119.63
2022-12-12T21:49:32.812Z,95114.75
2022-12-12T21:52:04.382Z,95109.00
2022-12-12T21:54:34.032Z,95122.16
2022-12-12T21:57:03.658Z,95094.47
2022-12-12T21:59:32.729Z,95064.84
2022-12-12T22:02:01.934Z,95119.13
2022-12-12T22:04:30.866Z,95031.44
2022-12-12T22:06:59.824Z,95113.69
2022-12-12T22:09:29.971Z,95114.13
2022-12-12T22:12:03.325Z,95108.69
2022-12-12T22:14:33.741Z,95113.31
2022-12-12T22:17:02.872Z,95081.25
2022-12-12T22:19:31.719Z,95061.94
2022-12-12T22:22:00.110Z,95102.81
2022-12-12T22:24:30.490Z,95091.88
2022-12-12T22:26:59.034Z,95105.28
2022-12-12T22:29:27.458Z,95104.00
2022-12-12T22:31:56.351Z,95061.75
2022-12-12T22:34:26.283Z,95091.00
2022-12-12T22:36:54.759Z,95093.72
2022-12-12T22:39:25.633Z,95075.47
2022-12-12T22:41:56.737Z,95076.78
2022-12-12T22:44:26.696Z,95092.75
2022-12-12T22:46:57.253Z,95075.69
2022-12-12T22:49:27.748Z,95078.13
2022-12-12T22:51:57.681Z,95091.47
2022-12-12T22:54:26.525Z,95090.69
2022-12-12T22:56:57.228Z,95086.22
2022-12-12T22:59:25.909Z,95095.19
2022-12-12T23:01:54.255Z,95095.19
2022-12-12T23:04:22.731Z,95085.44
2022-12-12T23:06:51.109Z,95048.84
2022-12-12T23:09:22.294Z,95042.28
2022-12-12T23:11:50.727Z,94924.16
2022-12-12T23:14:23.091Z,95080.13
2022-12-12T23:16:52.578Z,95076.88
2022-12-12T23:19:25.807Z,95078.22
2022-12-12T23:21:54.648Z,95078.38
2022-12-12T23:24:23.107Z,95084.44
2022-12-12T23:26:52.744Z,95079.19
2022-12-12T23:29:22.609Z,94988.84
2022-12-12T23:31:51.107Z,95077.22
2022-12-12T23:34:23.139Z,95076.22
2022-12-12T23:36:52.265Z,95075.50
2022-12-12T23:39:21.252Z,95083.00
2022-12-12T23:41:49.759Z,95080.00
2022-12-12T23:44:23.241Z,95066.31
2022-12-12T23:46:51.588Z,95074.78
2022-12-12T23:49:22.540Z,95079.28
2022-12-12T23:51:53.768Z,95077.28
2022-12-12T23:54:24.898Z,95072.88
2022-12-12T23:56:54.003Z,95070.09
2022-12-12T23:59:23.985Z,95062.59
